This is the latest recevied weather packets stored in our database for station/object KI6AOK. If no packets are shown the sender has not sent any weather packets the latest 10 day(s).
| Time | Temp. | Humidity | Pressure | Rain* | Wind** | Luminosity | Snow |
|---|---|---|---|---|---|---|---|
| 1777567950 | 19.44° C | 56% | 1012.9 hPa | 0 mm | - | 658 W/m² | - |
| 1777567646 | 19.44° C | 57% | 1012.7 hPa | 0 mm | - | 643 W/m² | - |
| 1777567344 | 19.44° C | 57% | 1012.9 hPa | 0 mm | - | 631 W/m² | - |
| 1777567042 | 18.89° C | 57% | 1012.8 hPa | 0 mm | - | 626 W/m² | - |
| 1777566740 | 18.89° C | 57% | 1012.9 hPa | 0 mm | - | 620 W/m² | - |
| 1777566437 | 18.33° C | 60% | 1013 hPa | 0 mm | - | 597 W/m² | - |
| 1777566134 | 18.33° C | 61% | 1013 hPa | 0 mm | - | 581 W/m² | - |
| 1777565829 | 17.78° C | 61% | 1012.9 hPa | 0 mm | - | 563 W/m² | - |
| 1777565526 | 17.78° C | 62% | 1013 hPa | 0 mm | - | 546 W/m² | - |
| 1777565222 | 17.78° C | 64% | 1012.9 hPa | 0 mm | - | 526 W/m² | - |
| 1777564919 | 17.78° C | 62% | 1012.9 hPa | 0 mm | - | 518 W/m² | - |
| 1777564614 | 17.22° C | 64% | 1013 hPa | 0 mm | - | 482 W/m² | - |
| 1777564309 | 17.22° C | 66% | 1013.2 hPa | 0 mm | - | 467 W/m² | - |
| 1777564006 | 17.78° C | 65% | 1013.2 hPa | 0 mm | - | 444 W/m² | - |
| 1777563702 | 17.22° C | 65% | 1013.1 hPa | 0 mm | - | 427 W/m² | - |
| 1777563398 | 16.67° C | 69% | 1013.2 hPa | 0 mm | - | 420 W/m² | - |
| 1777563093 | 16.67° C | 68% | 1013.3 hPa | 0 mm | - | 446 W/m² | - |
| 1777562789 | 15.56° C | 72% | 1013.3 hPa | 0 mm | - | 469 W/m² | - |
| 1777562488 | 15.56° C | 72% | 1013.3 hPa | 0 mm | - | 345 W/m² | - |
| 1777562185 | 15.56° C | 72% | 1013.2 hPa | 0 mm | - | 237 W/m² | - |
| 1777561882 | 15° C | 74% | 1013.2 hPa | 0 mm | - | 327 W/m² | - |
| 1777561580 | 15° C | 75% | 1013.2 hPa | 0 mm | - | 315 W/m² | - |
| 1777561275 | 15° C | 75% | 1013.2 hPa | 0 mm | - | 132 W/m² | - |
| 1777560975 | 14.44° C | 76% | 1013.1 hPa | 0 mm | - | 142 W/m² | - |
| 1777560670 | 14.44° C | 78% | 1013 hPa | 0 mm | - | 122 W/m² | - |
* Rain latest hour (hover to see other rain measurements)
** Current wind speed in m/s (hover to see current wind gust speed)